Time;durP1;ratioP1;P1;durP2;ratioP2;P2;SDS_P1;SDS_P2;PMS_P1;PMS_P2;Temp;Humidity;BMP_temperature;BMP_pressure;BME280_temperature;BME280_humidity;BME280_pressure;Samples;Min_cycle;Max_cycle;Signal;HPM_P1;HPM_P2
2022/02/18 00:01:04;;;;;;;13.32;4.43;;;17.80;65.30;;;;;;5011040;28;20041;-79
2022/02/18 00:03:30;;;;;;;16.58;4.40;;;17.80;65.40;;;;;;5012574;28;20022;-79
2022/02/18 00:05:57;;;;;;;13.05;3.90;;;17.80;65.30;;;;;;5014946;28;20038;-80
2022/02/18 00:08:24;;;;;;;15.50;4.13;;;17.70;65.30;;;;;;5014431;28;20453;-79
2022/02/18 00:10:50;;;;;;;13.88;4.07;;;17.70;65.40;;;;;;5012860;28;20533;-80
2022/02/18 00:13:16;;;;;;;13.20;3.88;;;17.70;65.40;;;;;;5013282;28;20014;-80
2022/02/18 00:15:42;;;;;;;12.95;4.07;;;17.70;65.40;;;;;;5012049;28;20120;-80
2022/02/18 00:18:08;;;;;;;17.30;3.85;;;17.70;65.50;;;;;;5014188;28;20109;-80
2022/02/18 00:20:34;;;;;;;11.30;3.78;;;17.60;65.50;;;;;;5013823;28;20133;-80
2022/02/18 00:23:01;;;;;;;17.42;4.43;;;17.60;65.50;;;;;;5012902;28;20018;-79
2022/02/18 00:25:28;;;;;;;14.27;3.78;;;17.60;65.60;;;;;;5014306;28;20033;-79
2022/02/18 00:27:54;;;;;;;14.48;4.35;;;17.60;65.60;;;;;;5014222;28;20029;-79
2022/02/18 00:30:19;;;;;;;12.60;4.10;;;17.60;65.60;;;;;;5013967;28;20033;-79
2022/02/18 00:32:46;;;;;;;11.75;3.97;;;17.50;65.60;;;;;;5013504;28;20057;-80
2022/02/18 00:35:11;;;;;;;13.10;3.05;;;17.50;65.60;;;;;;5013425;28;20105;-79
2022/02/18 00:37:37;;;;;;;12.13;4.05;;;17.50;65.60;;;;;;5013861;28;20105;-79
2022/02/18 00:40:04;;;;;;;13.63;3.83;;;17.50;65.70;;;;;;5013587;28;20045;-79
2022/02/18 00:42:29;;;;;;;18.33;3.88;;;17.40;65.70;;;;;;5013850;28;20490;-79
2022/02/18 00:44:55;;;;;;;12.70;3.80;;;17.40;65.70;;;;;;5013845;28;20026;-79
2022/02/18 00:47:21;;;;;;;16.52;3.78;;;17.40;65.70;;;;;;5013850;28;20061;-80
2022/02/18 00:49:46;;;;;;;14.35;4.13;;;17.40;65.70;;;;;;5013845;28;20033;-80
2022/02/18 00:52:12;;;;;;;11.05;2.92;;;17.40;65.70;;;;;;5013090;28;20101;-79
2022/02/18 00:54:37;;;;;;;16.15;4.43;;;17.40;65.80;;;;;;5011380;28;20034;-80
2022/02/18 00:57:04;;;;;;;12.65;3.72;;;17.30;65.70;;;;;;5013340;28;20030;-80
2022/02/18 00:59:30;;;;;;;14.75;3.88;;;;;;;;;;5013435;28;20485;-79
2022/02/18 01:01:56;;;;;;;15.85;3.42;;;;;;;;;;5013780;28;20398;-80
2022/02/18 01:04:22;;;;;;;11.95;3.17;;;;;;;;;;5029079;28;20034;-79
2022/02/18 01:06:48;;;;;;;11.45;3.47;;;;;;;;;;5013030;28;20067;-80
2022/02/18 01:09:14;;;;;;;14.43;3.50;;;;;;;;;;5013322;28;20050;-80
2022/02/18 01:11:40;;;;;;;15.30;3.38;;;;;;;;;;5013260;28;20055;-80
2022/02/18 01:14:06;;;;;;;12.38;3.28;;;;;;;;;;5013404;28;20021;-79
2022/02/18 01:16:32;;;;;;;12.70;3.95;;;17.30;65.70;;;;;;5028530;28;20117;-79
2022/02/18 01:18:58;;;;;;;9.73;3.40;;;17.20;65.60;;;;;;5013811;28;20022;-80
2022/02/18 01:21:25;;;;;;;10.32;3.00;;;17.20;65.80;;;;;;5013363;28;20040;-80
2022/02/18 01:23:51;;;;;;;10.30;3.92;;;17.20;65.80;;;;;;5007330;28;20061;-80
2022/02/18 01:26:17;;;;;;;12.32;2.70;;;17.20;65.80;;;;;;5012936;28;20069;-80
2022/02/18 01:28:43;;;;;;;10.93;3.25;;;17.10;65.60;;;;;;5025345;28;20026;-80
2022/02/18 01:31:09;;;;;;;9.05;2.30;;;17.10;65.60;;;;;;5011933;28;20101;-81
2022/02/18 01:33:34;;;;;;;12.55;3.15;;;17.10;65.60;;;;;;5011548;28;20053;-80
2022/02/18 01:36:00;;;;;;;12.32;3.50;;;17.10;65.60;;;;;;5010634;28;20599;-80
2022/02/18 01:38:26;;;;;;;11.68;3.55;;;17.10;65.60;;;;;;5012442;28;20044;-78
2022/02/18 01:40:52;;;;;;;11.20;2.95;;;17.10;65.60;;;;;;5011078;28;20042;-79
2022/02/18 01:43:18;;;;;;;15.15;4.03;;;17.10;65.60;;;;;;5012149;28;20106;-79
2022/02/18 01:45:44;;;;;;;9.93;2.40;;;17.10;65.60;;;;;;5012295;28;20398;-79
2022/02/18 01:48:10;;;;;;;9.48;3.15;;;17.10;65.60;;;;;;5012969;28;20048;-79
2022/02/18 01:50:36;;;;;;;12.10;3.33;;;17.10;65.60;;;;;;5012022;28;20053;-79
2022/02/18 01:53:02;;;;;;;10.85;3.45;;;17.00;65.60;;;;;;5012240;28;20100;-79
2022/02/18 01:55:28;;;;;;;12.10;3.08;;;17.10;65.60;;;;;;5012918;28;20070;-79
2022/02/18 01:57:58;;;;;;;15.13;3.45;;;17.00;65.70;;;;;;5012049;28;20462;-78
2022/02/18 02:00:29;;;;;;;11.05;3.33;;;17.00;65.60;;;;;;5012671;28;20033;-79
2022/02/18 02:02:56;;;;;;;13.50;2.92;;;17.00;65.70;;;;;;5011794;28;20320;-78
2022/02/18 02:05:22;;;;;;;8.38;2.42;;;16.90;65.70;;;;;;5010949;28;20032;-79
2022/02/18 02:07:48;;;;;;;10.85;2.95;;;16.90;65.80;;;;;;5010784;28;20109;-78
2022/02/18 02:10:16;;;;;;;11.20;3.60;;;16.90;65.80;;;;;;5011197;28;20029;-78
2022/02/18 02:12:50;;;;;;;10.57;3.08;;;16.90;65.80;;;;;;5011641;28;20466;-78
2022/02/18 02:15:17;;;;;;;13.60;3.30;;;16.90;65.80;;;;;;5011165;28;20018;-78
2022/02/18 02:17:44;;;;;;;11.82;3.17;;;16.90;65.80;;;;;;5011416;28;20111;-78
2022/02/18 02:20:10;;;;;;;10.50;3.17;;;16.90;65.70;;;;;;5011935;28;20112;-79
2022/02/18 02:22:37;;;;;;;10.30;2.72;;;16.90;65.70;;;;;;5011998;28;20041;-78
2022/02/18 02:25:03;;;;;;;10.50;3.17;;;16.90;65.70;;;;;;5011167;28;20034;-80
2022/02/18 02:27:30;;;;;;;10.98;3.15;;;16.90;65.80;;;;;;5012722;28;20466;-80
2022/02/18 02:29:56;;;;;;;12.05;3.17;;;16.90;65.80;;;;;;5012220;28;20014;-80
2022/02/18 02:32:22;;;;;;;9.45;2.42;;;16.90;65.80;;;;;;5011500;28;20034;-79
2022/02/18 02:34:48;;;;;;;10.10;3.17;;;16.90;65.80;;;;;;5011853;28;20093;-78
2022/02/18 02:37:14;;;;;;;11.60;3.25;;;16.90;65.80;;;;;;5012086;28;20110;-78
2022/02/18 02:39:40;;;;;;;9.35;3.00;;;16.80;65.80;;;;;;5010482;28;20064;-78
2022/02/18 02:42:07;;;;;;;11.18;2.63;;;16.80;65.70;;;;;;5010363;28;20037;-78
2022/02/18 02:44:34;;;;;;;9.05;2.63;;;16.80;65.70;;;;;;5011571;28;20029;-79
2022/02/18 02:47:00;;;;;;;9.35;2.85;;;16.80;65.70;;;;;;5011362;28;20056;-78
2022/02/18 02:49:26;;;;;;;10.07;2.70;;;16.80;65.80;;;;;;5011279;28;20018;-78
2022/02/18 02:51:52;;;;;;;9.25;2.60;;;16.80;65.70;;;;;;5026301;28;20402;-79
2022/02/18 02:54:18;;;;;;;8.25;2.40;;;16.80;65.70;;;;;;5011524;28;20030;-79
2022/02/18 02:56:44;;;;;;;9.52;2.70;;;16.80;65.80;;;;;;5011134;28;20386;-79
2022/02/18 02:59:10;;;;;;;9.50;2.33;;;16.70;65.80;;;;;;5011627;28;20049;-79
2022/02/18 03:01:36;;;;;;;12.95;2.78;;;16.70;65.80;;;;;;5010794;28;20076;-78
2022/02/18 03:04:01;;;;;;;8.93;2.60;;;16.70;65.80;;;;;;5010652;28;20032;-78
2022/02/18 03:06:27;;;;;;;8.60;2.67;;;16.70;65.80;;;;;;5011249;28;20029;-79
2022/02/18 03:08:53;;;;;;;9.05;2.53;;;16.70;65.90;;;;;;5009653;28;20034;-79
2022/02/18 03:11:19;;;;;;;10.63;3.40;;;16.70;65.90;;;;;;5011624;28;20427;-79
2022/02/18 03:13:48;;;;;;;11.27;3.00;;;16.70;65.80;;;;;;5010831;28;20115;-79
2022/02/18 03:16:15;;;;;;;9.20;2.30;;;16.70;65.80;;;;;;5011471;28;20022;-79
2022/02/18 03:18:41;;;;;;;9.80;2.80;;;16.70;65.70;;;;;;5010937;28;20076;-79
2022/02/18 03:21:07;;;;;;;9.88;2.67;;;16.70;65.70;;;;;;5010171;28;20494;-79
2022/02/18 03:23:34;;;;;;;9.32;2.17;;;16.70;65.70;;;;;;5009132;28;20076;-79
2022/02/18 03:25:59;;;;;;;8.80;2.42;;;16.70;65.70;;;;;;5011498;28;20034;-79
2022/02/18 03:28:25;;;;;;;10.80;3.10;;;16.70;66.40;;;;;;5011301;28;20105;-79
2022/02/18 03:30:51;;;;;;;13.15;2.75;;;16.70;65.70;;;;;;5011220;28;20040;-79
2022/02/18 03:33:16;;;;;;;10.05;2.55;;;16.60;65.60;;;;;;5010260;28;20033;-77
2022/02/18 03:35:42;;;;;;;9.80;2.47;;;16.60;65.60;;;;;;5009809;28;20498;-79
2022/02/18 03:38:08;;;;;;;8.25;2.58;;;16.60;65.50;;;;;;5011818;28;20032;-78
2022/02/18 03:40:34;;;;;;;8.20;2.90;;;16.60;65.40;;;;;;5013500;28;20029;-78
2022/02/18 03:43:00;;;;;;;13.82;3.20;;;16.60;65.40;;;;;;5015160;28;20095;-78
2022/02/18 03:45:26;;;;;;;10.70;2.90;;;16.70;65.40;;;;;;5014711;28;20540;-78
2022/02/18 03:47:52;;;;;;;9.00;3.05;;;16.70;65.40;;;;;;5014891;28;20054;-79
2022/02/18 03:50:19;;;;;;;7.22;2.03;;;16.70;65.30;;;;;;5014822;28;20026;-79
2022/02/18 03:52:44;;;;;;;12.55;3.08;;;16.70;65.40;;;;;;5014427;28;20058;-78
2022/02/18 03:55:10;;;;;;;10.25;2.85;;;16.70;65.40;;;;;;5014369;28;20522;-79
2022/02/18 03:57:36;;;;;;;11.30;2.45;;;16.70;65.40;;;;;;5014657;28;20033;-79
2022/02/18 04:00:07;;;;;;;10.20;3.03;;;16.70;65.40;;;;;;5029694;28;20079;-79
2022/02/18 04:02:33;;;;;;;11.18;2.85;;;16.70;65.40;;;;;;5026739;28;20026;-78
2022/02/18 04:04:59;;;;;;;10.52;2.58;;;16.70;65.50;;;;;;5012617;28;20030;-79
2022/02/18 04:07:24;;;;;;;7.78;2.70;;;16.70;65.40;;;;;;5014611;28;20075;-79
2022/02/18 04:09:50;;;;;;;11.30;2.40;;;16.70;65.40;;;;;;5014152;28;20038;-78
2022/02/18 04:12:16;;;;;;;9.75;2.70;;;16.80;65.30;;;;;;5013450;28;20048;-79
2022/02/18 04:14:41;;;;;;;7.53;2.40;;;16.70;65.30;;;;;;5012690;28;20042;-79
2022/02/18 04:17:07;;;;;;;9.85;2.88;;;16.80;65.30;;;;;;5013450;28;20026;-80
2022/02/18 04:19:33;;;;;;;11.00;3.38;;;16.80;65.40;;;;;;5013495;28;20022;-79
2022/02/18 04:22:02;;;;;;;12.25;3.28;;;16.80;65.30;;;;;;5013727;28;20445;-79
2022/02/18 04:24:28;;;;;;;9.93;3.42;;;16.80;65.30;;;;;;5012278;28;20034;-79
2022/02/18 04:26:54;;;;;;;13.23;3.90;;;16.80;65.30;;;;;;4993374;28;20528;-79
2022/02/18 04:29:19;;;;;;;12.30;3.33;;;16.80;65.30;;;;;;4994793;28;20216;-78
2022/02/18 04:31:45;;;;;;;10.50;2.88;;;16.80;65.30;;;;;;4997096;28;20041;-78
2022/02/18 04:34:11;;;;;;;8.90;2.60;;;16.80;65.30;;;;;;5027349;28;20026;-78
2022/02/18 04:36:36;;;;;;;9.60;2.97;;;16.80;65.30;;;;;;5013583;28;20397;-78
2022/02/18 04:39:03;;;;;;;11.90;2.92;;;16.80;65.20;;;;;;5014093;28;20026;-78
2022/02/18 04:41:28;;;;;;;13.25;3.13;;;16.80;65.30;;;;;;5013656;28;20501;-78
2022/02/18 04:43:54;;;;;;;13.23;3.22;;;16.80;65.30;;;;;;5013704;28;20110;-79
2022/02/18 04:46:19;;;;;;;13.15;3.30;;;16.80;65.30;;;;;;5014193;28;20034;-79
2022/02/18 04:48:45;;;;;;;10.15;2.72;;;16.80;65.30;;;;;;5012907;28;20095;-78
2022/02/18 04:51:11;;;;;;;11.90;3.72;;;16.80;65.30;;;;;;5028584;28;20068;-78
2022/02/18 04:53:37;;;;;;;9.00;2.42;;;16.80;65.30;;;;;;5028329;28;20037;-78
2022/02/18 04:56:04;;;;;;;13.65;3.08;;;16.90;65.40;;;;;;5013880;28;20148;-78
2022/02/18 04:58:31;;;;;;;18.13;3.60;;;16.80;65.30;;;;;;5013529;28;20022;-78
2022/02/18 05:00:56;;;;;;;11.75;3.15;;;16.80;65.30;;;;;;5012546;28;20143;-78
2022/02/18 05:03:22;;;;;;;7.75;2.33;;;16.80;65.40;;;;;;5012897;28;20506;-79
2022/02/18 05:05:48;;;;;;;10.73;3.03;;;16.80;65.40;;;;;;5013099;28;20473;-79
2022/02/18 05:08:13;;;;;;;9.68;3.00;;;16.90;65.50;;;;;;5013664;28;20379;-79
2022/02/18 05:10:40;;;;;;;10.75;3.33;;;16.80;65.40;;;;;;5012970;28;20034;-79
2022/02/18 05:13:06;;;;;;;10.23;3.33;;;16.90;65.50;;;;;;5011716;28;20030;-79
2022/02/18 05:15:32;;;;;;;10.50;2.47;;;16.80;65.50;;;;;;5013479;28;20034;-78
2022/02/18 05:18:03;;;;;;;9.48;2.75;;;16.80;65.50;;;;;;5013446;28;20029;-79
2022/02/18 05:20:29;;;;;;;9.48;2.60;;;16.80;65.50;;;;;;5013523;28;20069;-79
2022/02/18 05:22:56;;;;;;;10.65;3.65;;;16.80;65.60;;;;;;5012861;28;20053;-79
2022/02/18 05:25:21;;;;;;;10.55;2.72;;;16.80;65.50;;;;;;5011332;28;20484;-78
2022/02/18 05:27:47;;;;;;;10.80;3.38;;;16.90;65.60;;;;;;5012593;28;20026;-78
2022/02/18 05:30:13;;;;;;;9.95;2.40;;;16.80;65.60;;;;;;5013147;28;20030;-78
2022/02/18 05:32:39;;;;;;;10.90;2.70;;;16.80;65.60;;;;;;5010838;28;20037;-79
2022/02/18 05:35:05;;;;;;;11.25;2.50;;;16.80;65.60;;;;;;5011167;28;20018;-78
2022/02/18 05:37:30;;;;;;;9.73;2.45;;;16.90;65.60;;;;;;5012807;28;20068;-79
2022/02/18 05:39:56;;;;;;;9.50;2.35;;;16.90;65.60;;;;;;5011735;28;20065;-78
2022/02/18 05:42:22;;;;;;;11.52;2.78;;;16.90;65.60;;;;;;5027665;28;20034;-79
2022/02/18 05:44:47;;;;;;;8.38;2.47;;;16.80;65.60;;;;;;5027491;28;20398;-78
2022/02/18 05:47:13;;;;;;;10.55;3.03;;;16.90;65.60;;;;;;5012877;28;20084;-79
2022/02/18 05:49:39;;;;;;;8.57;2.35;;;16.90;65.70;;;;;;5011354;28;20117;-79
2022/02/18 05:52:05;;;;;;;10.65;3.53;;;16.90;65.70;;;;;;5012472;28;20055;-78
2022/02/18 05:54:30;;;;;;;12.07;3.10;;;16.90;65.70;;;;;;5012746;28;20018;-79
2022/02/18 05:56:56;;;;;;;6.97;2.47;;;16.90;65.70;;;;;;5012788;28;20025;-79
2022/02/18 05:59:21;;;;;;;7.53;2.50;;;17.00;65.80;;;;;;5027668;28;20033;-79
2022/02/18 06:01:47;;;;;;;7.30;3.03;;;16.90;65.70;;;;;;5010991;28;20038;-80
2022/02/18 06:04:14;;;;;;;9.65;2.83;;;17.00;65.70;;;;;;5007181;28;20042;-79
2022/02/18 06:06:40;;;;;;;9.60;2.38;;;17.00;65.70;;;;;;4991470;28;20029;-79
2022/02/18 06:09:06;;;;;;;12.40;2.70;;;17.00;65.60;;;;;;4991663;28;20054;-79
2022/02/18 06:11:32;;;;;;;10.85;2.75;;;17.10;65.70;;;;;;4993764;28;20058;-78
2022/02/18 06:13:58;;;;;;;7.28;2.58;;;17.10;65.60;;;;;;5011737;28;20105;-79
2022/02/18 06:16:25;;;;;;;9.10;2.58;;;17.10;65.60;;;;;;5011905;28;20510;-79
2022/02/18 06:18:50;;;;;;;6.15;2.33;;;17.20;65.70;;;;;;5007483;28;20027;-80
2022/02/18 06:21:16;;;;;;;9.13;3.00;;;17.20;65.50;;;;;;4992647;28;20163;-80
2022/02/18 06:23:42;;;;;;;7.07;1.98;;;17.20;65.50;;;;;;5010636;28;20485;-79
2022/02/18 06:26:07;;;;;;;6.88;2.08;;;17.30;65.50;;;;;;5011858;28;20030;-79
2022/02/18 06:28:33;;;;;;;6.85;2.13;;;17.30;65.50;;;;;;5012349;28;20072;-79
2022/02/18 06:30:58;;;;;;;7.45;2.38;;;17.30;65.50;;;;;;5011956;28;20037;-79
2022/02/18 06:33:24;;;;;;;12.02;2.92;;;17.40;65.50;;;;;;5011335;28;20049;-79
2022/02/18 06:35:50;;;;;;;8.48;1.98;;;17.40;65.50;;;;;;5011585;28;20502;-79
2022/02/18 06:38:15;;;;;;;8.25;2.00;;;17.40;65.40;;;;;;5011968;28;20084;-78
2022/02/18 06:40:41;;;;;;;9.23;3.08;;;17.40;65.40;;;;;;5026418;28;20073;-79
2022/02/18 06:43:07;;;;;;;7.28;2.22;;;17.50;65.40;;;;;;5010088;28;20031;-78
2022/02/18 06:45:33;;;;;;;7.70;2.05;;;17.50;65.50;;;;;;5010081;28;20032;-79
2022/02/18 06:47:59;;;;;;;9.07;2.13;;;17.50;65.40;;;;;;5010651;28;20049;-78
2022/02/18 06:50:25;;;;;;;6.82;1.90;;;17.60;65.50;;;;;;5011637;28;20482;-78
2022/02/18 06:52:51;;;;;;;5.85;1.80;;;17.60;65.50;;;;;;5011216;28;20033;-79
2022/02/18 06:55:18;;;;;;;6.00;1.88;;;17.60;65.40;;;;;;5011629;28;20029;-78
2022/02/18 06:57:46;;;;;;;5.43;1.45;;;17.70;65.40;;;;;;5010494;28;20080;-79
2022/02/18 07:00:13;;;;;;;6.70;1.77;;;17.70;65.40;;;;;;5011394;28;20549;-79
2022/02/18 07:02:40;;;;;;;6.32;1.52;;;17.80;65.40;;;;;;5010486;28;20045;-79
2022/02/18 07:05:11;;;;;;;5.57;1.73;;;17.80;65.40;;;;;;5010901;28;20018;-78
2022/02/18 07:07:37;;;;;;;4.40;1.50;;;17.80;65.40;;;;;;5011337;28;20037;-78
2022/02/18 07:10:04;;;;;;;5.88;1.58;;;17.80;65.40;;;;;;5010688;28;20030;-79
2022/02/18 07:12:30;;;;;;;5.60;1.88;;;17.80;65.40;;;;;;5009295;28;20030;-79
2022/02/18 07:14:56;;;;;;;5.38;1.60;;;17.90;65.40;;;;;;5010366;28;20037;-79
2022/02/18 07:17:24;;;;;;;4.13;1.73;;;17.80;65.40;;;;;;5008877;28;20120;-79
2022/02/18 07:19:51;;;;;;;7.00;1.50;;;17.80;65.50;;;;;;5011210;28;20084;-79
2022/02/18 07:22:16;;;;;;;5.35;1.50;;;17.90;65.50;;;;;;5008883;28;20030;-79
2022/02/18 07:24:44;;;;;;;6.28;1.65;;;17.80;65.60;;;;;;5008795;28;20398;-80
2022/02/18 07:27:09;;;;;;;2.92;1.23;;;17.90;65.60;;;;;;5011415;28;20046;-79
2022/02/18 07:29:35;;;;;;;4.57;1.33;;;17.90;65.70;;;;;;5010181;28;20088;-80
2022/02/18 07:32:01;;;;;;;5.47;1.30;;;17.90;65.60;;;;;;5009269;28;20634;-79
2022/02/18 07:34:26;;;;;;;4.05;1.23;;;17.90;65.70;;;;;;5010652;28;20121;-79
2022/02/18 07:36:52;;;;;;;4.50;1.30;;;17.80;65.70;;;;;;5006416;28;20076;-79
2022/02/18 07:39:18;;;;;;;4.25;1.25;;;17.80;65.80;;;;;;5014791;28;20456;-79
2022/02/18 07:41:43;;;;;;;5.00;1.10;;;17.80;65.80;;;;;;5009699;28;20494;-80
2022/02/18 07:44:09;;;;;;;3.80;1.38;;;17.80;65.80;;;;;;5009551;28;20018;-78
2022/02/18 07:46:35;;;;;;;3.67;1.05;;;17.80;65.90;;;;;;5008376;28;20030;-78
2022/02/18 07:49:00;;;;;;;3.00;1.00;;;17.80;66.70;;;;;;5011054;28;20026;-78
2022/02/18 07:51:26;;;;;;;1.35;0.52;;;17.80;66.00;;;;;;5025716;28;20633;-79
2022/02/18 07:53:52;;;;;;;3.85;1.00;;;17.80;66.20;;;;;;5008645;28;20512;-79
2022/02/18 07:56:17;;;;;;;6.47;1.38;;;17.80;66.20;;;;;;5009663;28;20108;-78
2022/02/18 07:58:47;;;;;;;2.47;0.73;;;17.70;66.30;;;;;;5025132;28;20018;-81
2022/02/18 08:01:17;;;;;;;3.90;0.88;;;17.70;66.40;;;;;;4991358;28;20126;-80
2022/02/18 08:03:51;;;;;;;2.63;0.88;;;17.70;66.20;;;;;;5024452;28;20022;-79
2022/02/18 08:06:17;;;;;;;2.28;0.70;;;17.70;66.70;;;;;;5006009;28;20041;-79
2022/02/18 08:08:44;;;;;;;1.73;0.73;;;17.60;67.00;;;;;;5008753;28;20122;-79
2022/02/18 08:11:11;;;;;;;4.00;0.70;;;17.60;66.50;;;;;;5009113;28;20096;-79
2022/02/18 08:13:37;;;;;;;3.55;1.00;;;17.60;67.30;;;;;;5025883;28;20401;-79
2022/02/18 08:16:03;;;;;;;2.45;0.70;;;17.60;67.30;;;;;;5025838;28;20030;-78
2022/02/18 08:18:29;;;;;;;4.35;0.60;;;17.50;67.20;;;;;;5009564;28;20033;-79
2022/02/18 08:20:54;;;;;;;1.35;0.50;;;17.50;67.40;;;;;;5009944;28;20072;-79
2022/02/18 08:23:20;;;;;;;4.72;0.70;;;17.50;67.60;;;;;;5011283;28;20063;-79
2022/02/18 08:25:47;;;;;;;4.57;0.82;;;17.50;67.30;;;;;;5029000;28;20037;-78
2022/02/18 08:28:13;;;;;;;3.65;0.70;;;17.60;67.60;;;;;;5009818;28;20030;-80
2022/02/18 08:30:38;;;;;;;1.83;0.70;;;17.60;67.60;;;;;;5000872;28;20041;-79
2022/02/18 08:33:04;;;;;;;2.78;0.52;;;17.70;67.80;;;;;;5028935;28;20030;-80
2022/02/18 08:35:30;;;;;;;1.48;0.40;;;17.80;67.80;;;;;;5013460;28;20393;-80
2022/02/18 08:37:57;;;;;;;2.05;0.60;;;17.90;67.70;;;;;;5014233;28;20033;-81
2022/02/18 08:40:23;;;;;;;1.75;0.30;;;17.90;67.70;;;;;;5013004;28;20022;-83
2022/02/18 08:42:49;;;;;;;2.60;0.50;;;17.90;67.70;;;;;;5012966;28;20030;-82
2022/02/18 08:45:15;;;;;;;1.52;0.47;;;18.00;67.70;;;;;;5013664;28;20092;-81
2022/02/18 08:47:40;;;;;;;1.55;0.40;;;18.10;67.80;;;;;;5013821;28;20141;-80
2022/02/18 08:50:09;;;;;;;2.17;0.50;;;18.10;67.90;;;;;;5013678;28;20177;-83
2022/02/18 08:52:38;;;;;;;1.15;0.50;;;18.10;67.90;;;;;;5012008;28;20414;-84
2022/02/18 08:55:04;;;;;;;1.20;0.22;;;;;;;;;;5013125;28;20377;-81
2022/02/18 08:57:31;;;;;;;0.73;0.30;;;18.10;67.90;;;;;;5013291;28;20041;-83
2022/02/18 08:59:57;;;;;;;3.13;0.43;;;18.30;68.80;;;;;;5030357;28;20025;-81
2022/02/18 09:02:24;;;;;;;2.13;1.00;;;18.30;67.70;;;;;;5013406;28;20117;-82
2022/02/18 09:04:51;;;;;;;4.78;2.10;;;18.40;67.60;;;;;;5013596;28;20026;-81
2022/02/18 09:07:16;;;;;;;3.78;1.95;;;18.50;68.40;;;;;;5027444;28;20387;-82
2022/02/18 09:09:43;;;;;;;4.90;1.98;;;18.50;67.70;;;;;;5011848;28;20032;-81
2022/02/18 09:12:08;;;;;;;4.22;1.77;;;18.50;67.60;;;;;;5011984;28;20022;-80
2022/02/18 09:14:34;;;;;;;2.70;1.38;;;18.60;67.50;;;;;;5012468;28;20449;-81
2022/02/18 09:17:00;;;;;;;4.07;1.58;;;18.70;67.40;;;;;;5013644;28;20041;-82
2022/02/18 09:19:26;;;;;;;1.85;1.08;;;18.70;67.40;;;;;;5012891;28;20093;-82
2022/02/18 09:21:51;;;;;;;2.38;1.17;;;18.80;67.30;;;;;;5008123;28;20505;-81
2022/02/18 09:24:17;;;;;;;2.72;1.20;;;18.80;67.20;;;;;;4993943;28;20060;-81
2022/02/18 09:26:42;;;;;;;2.80;1.02;;;18.90;67.00;;;;;;5011323;28;20068;-82
2022/02/18 09:29:13;;;;;;;2.47;1.10;;;18.90;66.30;;;;;;5013026;28;20145;-84
2022/02/18 09:31:39;;;;;;;1.67;0.60;;;19.00;66.70;;;;;;5010962;28;20049;-82
2022/02/18 09:34:05;;;;;;;4.13;0.82;;;19.00;66.90;;;;;;5011496;28;20024;-82
2022/02/18 09:36:31;;;;;;;2.85;0.82;;;19.00;66.80;;;;;;5010423;28;20132;-81
2022/02/18 09:39:21;;;;;;;3.50;0.70;;;19.00;67.00;;;;;;5023742;28;20049;-83
2022/02/18 09:42:01;;;;;;;4.65;0.80;;;19.00;66.90;;;;;;5025357;28;20046;-82
2022/02/18 09:44:35;;;;;;;2.20;0.70;;;19.00;66.70;;;;;;5007929;28;20056;-82
2022/02/18 09:47:05;;;;;;;1.05;0.55;;;19.00;66.60;;;;;;5029159;28;20046;-81
2022/02/18 09:49:39;;;;;;;1.55;0.52;;;19.00;66.50;;;;;;5025525;28;20026;-83
2022/02/18 09:52:08;;;;;;;2.05;0.82;;;19.00;66.40;;;;;;5026198;28;20037;-80
2022/02/18 09:54:46;;;;;;;1.35;0.50;;;19.10;66.40;;;;;;5029565;28;20549;-82
2022/02/18 09:57:25;;;;;;;2.22;0.60;;;19.10;66.40;;;;;;5014012;28;20038;-80
2022/02/18 09:59:51;;;;;;;1.70;0.50;;;19.10;66.40;;;;;;5011071;28;20038;-79
2022/02/18 10:02:18;;;;;;;2.10;0.43;;;19.10;66.70;;;;;;5024664;28;20072;-79
2022/02/18 10:04:44;;;;;;;2.50;0.65;;;19.10;66.50;;;;;;5029243;28;20029;-78
2022/02/18 10:07:09;;;;;;;2.03;0.47;;;19.10;66.40;;;;;;5022305;28;20409;-79
2022/02/18 10:09:47;;;;;;;0.90;0.43;;;19.10;66.50;;;;;;5019132;28;20059;-78
2022/02/18 10:12:14;;;;;;;1.75;0.40;;;19.20;66.60;;;;;;5024690;28;20501;-78
2022/02/18 10:15:00;;;;;;;1.80;0.60;;;19.20;66.60;;;;;;5011809;28;20529;-79
2022/02/18 10:17:40;;;;;;;1.40;0.40;;;19.20;66.50;;;;;;5026544;28;20188;-78
2022/02/18 10:20:15;;;;;;;2.90;0.50;;;19.20;66.40;;;;;;5011096;28;20144;-79
2022/02/18 10:22:53;;;;;;;1.60;0.57;;;19.20;66.40;;;;;;5011689;28;20033;-79
2022/02/18 10:25:27;;;;;;;1.05;0.45;;;19.20;66.30;;;;;;5010484;28;20401;-79
2022/02/18 10:27:54;;;;;;;3.97;0.50;;;19.20;66.30;;;;;;5011599;28;20486;-79
2022/02/18 10:30:25;;;;;;;1.30;0.50;;;19.20;66.30;;;;;;4994972;28;20026;-79
2022/02/18 10:32:56;;;;;;;1.00;0.40;;;19.20;66.40;;;;;;5026588;28;20474;-80
2022/02/18 10:35:33;;;;;;;1.08;0.60;;;19.20;66.40;;;;;;5010904;28;20502;-78
2022/02/18 10:37:59;;;;;;;0.70;0.32;;;19.20;66.30;;;;;;5026357;28;20038;-79
2022/02/18 10:40:25;;;;;;;1.88;0.40;;;19.30;66.30;;;;;;5011065;28;20034;-79
2022/02/18 10:42:53;;;;;;;2.40;0.35;;;19.30;66.20;;;;;;5026525;28;20025;-79
2022/02/18 10:45:23;;;;;;;1.98;0.40;;;19.30;66.20;;;;;;5010755;28;20037;-79
2022/02/18 10:48:04;;;;;;;1.50;0.40;;;19.30;66.20;;;;;;5010166;28;20101;-80
2022/02/18 10:50:30;;;;;;;0.73;0.50;;;19.40;66.30;;;;;;4996281;28;20104;-79
2022/02/18 10:53:13;;;;;;;1.10;0.40;;;19.30;66.10;;;;;;5025769;28;20109;-79
2022/02/18 10:56:02;;;;;;;1.20;0.40;;;19.40;66.20;;;;;;5026319;28;20037;-80
2022/02/18 10:58:30;;;;;;;1.92;0.40;;;19.40;66.10;;;;;;4998734;28;20025;-80
2022/02/18 11:01:18;;;;;;;1.15;0.30;;;19.40;66.20;;;;;;5025793;28;20049;-81
2022/02/18 11:03:46;;;;;;;3.03;0.40;;;19.40;66.20;;;;;;5009884;28;20886;-79
2022/02/18 11:06:12;;;;;;;1.20;0.50;;;19.40;66.10;;;;;;5026272;28;20037;-79
2022/02/18 11:08:40;;;;;;;1.65;0.38;;;19.50;66.20;;;;;;5025548;28;20129;-79
2022/02/18 11:11:10;;;;;;;6.80;0.68;;;19.50;66.10;;;;;;5009171;28;20112;-78
2022/02/18 11:13:40;;;;;;;1.48;0.30;;;19.50;66.00;;;;;;5024916;28;20037;-78
2022/02/18 11:16:08;;;;;;;0.80;0.30;;;19.50;66.10;;;;;;5010587;28;20022;-79
2022/02/18 11:18:34;;;;;;;3.08;1.70;;;19.50;66.20;;;;;;5025776;28;20064;-79
2022/02/18 11:21:01;;;;;;;7.57;3.45;;;19.60;66.30;;;;;;5010040;28;20045;-80
2022/02/18 11:23:27;;;;;;;7.38;3.35;;;19.60;66.30;;;;;;5010378;28;20105;-79
2022/02/18 11:25:54;;;;;;;7.07;2.50;;;19.60;66.10;;;;;;5010277;28;20049;-79
2022/02/18 11:28:20;;;;;;;5.97;1.67;;;19.60;66.00;;;;;;5036803;28;20041;-78
2022/02/18 11:30:47;;;;;;;3.17;1.65;;;19.60;65.90;;;;;;5025430;28;20026;-78
2022/02/18 11:33:40;;;;;;;6.18;1.67;;;19.60;65.70;;;;;;5010651;28;20112;-78
2022/02/18 11:36:43;;;;;;;5.60;1.50;;;19.60;65.50;;;;;;5025673;28;20084;-78
2022/02/18 11:39:24;;;;;;;3.45;1.38;;;19.60;65.40;;;;;;5010316;28;20045;-78
2022/02/18 11:42:14;;;;;;;4.00;1.48;;;19.60;65.40;;;;;;5010523;28;20060;-78
2022/02/18 11:44:39;;;;;;;5.45;1.30;;;19.60;65.20;;;;;;5009130;28;20065;-78
2022/02/18 11:47:15;;;;;;;3.08;1.00;;;19.60;65.10;;;;;;5008687;28;20030;-78
2022/02/18 11:49:43;;;;;;;7.10;1.10;;;19.60;65.20;;;;;;5008916;28;20022;-78
2022/02/18 11:52:10;;;;;;;4.32;1.00;;;19.60;65.00;;;;;;5010321;28;20034;-78
2022/02/18 11:54:37;;;;;;;4.03;1.20;;;19.60;64.90;;;;;;5025269;28;20018;-78
2022/02/18 11:57:07;;;;;;;3.90;1.50;;;19.60;64.90;;;;;;5010263;28;20026;-79
2022/02/18 11:59:45;;;;;;;5.32;1.60;;;19.60;64.70;;;;;;5012679;28;20022;-78
2022/02/18 12:02:11;;;;;;;4.25;1.25;;;19.60;64.70;;;;;;5014529;28;20121;-79
2022/02/18 12:04:39;;;;;;;5.75;1.25;;;19.60;64.60;;;;;;5013832;28;20101;-79
2022/02/18 12:07:15;;;;;;;4.57;1.08;;;19.60;64.60;;;;;;5028792;28;20485;-79
2022/02/18 12:09:52;;;;;;;3.72;1.17;;;19.50;64.50;;;;;;5008589;28;20041;-78
2022/02/18 12:12:32;;;;;;;3.38;1.20;;;19.60;64.50;;;;;;5013967;28;20025;-79
2022/02/18 12:15:07;;;;;;;2.80;1.23;;;19.60;64.40;;;;;;5029214;28;20022;-78
2022/02/18 12:17:35;;;;;;;4.07;1.00;;;19.50;64.10;;;;;;5028675;28;20048;-78
2022/02/18 12:20:23;;;;;;;4.47;1.33;;;19.60;63.90;;;;;;5012444;28;20497;-79
2022/02/18 12:22:49;;;;;;;6.47;1.05;;;19.60;63.90;;;;;;5027482;28;20060;-79
2022/02/18 12:25:28;;;;;;;5.15;1.35;;;19.60;63.60;;;;;;5013207;28;20026;-80
2022/02/18 12:28:17;;;;;;;4.38;1.38;;;19.60;63.60;;;;;;5012111;28;20040;-80
2022/02/18 12:31:09;;;;;;;8.00;0.82;;;19.60;63.50;;;;;;5015814;28;20065;-81
2022/02/18 12:33:35;;;;;;;6.28;1.23;;;19.60;63.20;;;;;;5028181;28;20049;-78
2022/02/18 12:36:06;;;;;;;12.25;1.52;;;19.60;63.30;;;;;;5012303;28;20033;-77
2022/02/18 12:38:31;;;;;;;6.70;0.95;;;19.60;63.30;;;;;;5028010;28;20030;-78
2022/02/18 12:40:57;;;;;;;14.85;1.65;;;19.60;63.40;;;;;;5013077;28;20524;-78
2022/02/18 12:43:23;;;;;;;5.75;1.42;;;19.60;62.90;;;;;;5011866;28;20022;-79
2022/02/18 12:45:54;;;;;;;5.65;1.00;;;19.60;62.90;;;;;;5013189;28;20054;-79
2022/02/18 12:48:33;;;;;;;4.13;1.08;;;19.60;62.00;;;;;;4997321;28;20022;-78